C6577 KMOB-KMOB
Flight info
| Callsign | C6577 |
|---|---|
| Flight time | 1h 16m |
| Altitude | 1000 |
| Route | VFR |
| Aircraft | AS65/L-V/N |
Departure
| Time | 2026-04-11 22:33 |
|---|---|
| Airport | Mobile Regional Airport (KMOB) |
Arrival
| Time | 2026-04-11 23:49 |
|---|---|
| Airport | Mobile Regional Airport (KMOB) |
| Time | Latitude | Longitude | Altitude | Speed | Heading |
|---|---|---|---|---|---|
| 2026-04-11 22:01 | 30.69383 | -88.24207 | 221 ft | 0 kts | 0° |
| 2026-04-11 22:01 | 30.69367 | -88.24207 | 229 ft | 0 kts | 0° |
| 2026-04-11 22:31 | 30.69369 | -88.24207 | 227 ft | 2 kts | 359° |
| 2026-04-11 22:31 | 30.69397 | -88.24239 | 246 ft | 6 kts | 346° |
| 2026-04-11 22:31 | 30.69465 | -88.24322 | 259 ft | 24 kts | 302° |
| 2026-04-11 22:31 | 30.69481 | -88.24506 | 259 ft | 21 kts | 263° |
| 2026-04-11 22:32 | 30.69463 | -88.24615 | 270 ft | 13 kts | 262° |
| 2026-04-11 22:32 | 30.69323 | -88.24656 | 310 ft | 56 kts | 156° |
| 2026-04-11 22:32 | 30.68862 | -88.24664 | 398 ft | 67 kts | 180° |
| 2026-04-11 22:32 | 30.68342 | -88.24684 | 437 ft | 84 kts | 181° |
| 2026-04-11 22:33 | 30.67629 | -88.24678 | 479 ft | 121 kts | 178° |
| 2026-04-11 22:33 | 30.66784 | -88.24571 | 734 ft | 123 kts | 172° |
| 2026-04-11 22:33 | 30.65946 | -88.24353 | 848 ft | 121 kts | 165° |
| 2026-04-11 22:33 | 30.65147 | -88.24070 | 958 ft | 122 kts | 166° |
| 2026-04-11 22:34 | 30.64389 | -88.23937 | 1061 ft | 100 kts | 177° |
| 2026-04-11 22:34 | 30.63759 | -88.23825 | 1086 ft | 91 kts | 173° |
| 2026-04-11 22:34 | 30.63061 | -88.23676 | 1004 ft | 112 kts | 174° |
| 2026-04-11 22:34 | 30.62245 | -88.23570 | 1033 ft | 117 kts | 179° |
| 2026-04-11 22:35 | 30.61482 | -88.23395 | 1020 ft | 113 kts | 163° |
| 2026-04-11 22:35 | 30.60737 | -88.23167 | 1031 ft | 109 kts | 170° |
| 2026-04-11 22:35 | 30.59986 | -88.22991 | 1023 ft | 113 kts | 170° |
| 2026-04-11 22:35 | 30.59195 | -88.22751 | 1020 ft | 122 kts | 173° |
| 2026-04-11 22:36 | 30.58347 | -88.22571 | 1037 ft | 121 kts | 175° |
| 2026-04-11 22:36 | 30.57520 | -88.22374 | 1022 ft | 124 kts | 172° |
| 2026-04-11 22:36 | 30.56667 | -88.22190 | 1040 ft | 120 kts | 175° |
| 2026-04-11 22:36 | 30.55887 | -88.22075 | 1037 ft | 108 kts | 176° |
| 2026-04-11 22:37 | 30.55129 | -88.21953 | 1031 ft | 113 kts | 176° |
| 2026-04-11 22:37 | 30.54377 | -88.21805 | 1040 ft | 104 kts | 175° |
| 2026-04-11 22:37 | 30.53643 | -88.21636 | 1015 ft | 113 kts | 169° |
| 2026-04-11 22:37 | 30.52838 | -88.21389 | 1040 ft | 122 kts | 167° |
| 2026-04-11 22:38 | 30.52019 | -88.21105 | 1033 ft | 122 kts | 166° |
| 2026-04-11 22:38 | 30.51209 | -88.20882 | 1033 ft | 120 kts | 171° |
| 2026-04-11 22:38 | 30.50360 | -88.20739 | 1029 ft | 124 kts | 174° |
| 2026-04-11 22:38 | 30.49514 | -88.20605 | 1028 ft | 125 kts | 175° |
| 2026-04-11 22:39 | 30.48700 | -88.20473 | 1048 ft | 113 kts | 174° |
| 2026-04-11 22:39 | 30.47910 | -88.20302 | 1039 ft | 112 kts | 169° |
| 2026-04-11 22:39 | 30.47145 | -88.20091 | 1029 ft | 116 kts | 168° |
| 2026-04-11 22:39 | 30.46363 | -88.19947 | 1047 ft | 111 kts | 175° |
| 2026-04-11 22:40 | 30.45579 | -88.19823 | 1033 ft | 118 kts | 173° |
| 2026-04-11 22:40 | 30.44774 | -88.19702 | 1036 ft | 116 kts | 176° |
| 2026-04-11 22:40 | 30.44013 | -88.19520 | 1036 ft | 109 kts | 169° |
| 2026-04-11 22:40 | 30.43256 | -88.19353 | 1035 ft | 113 kts | 173° |
| 2026-04-11 22:41 | 30.42479 | -88.19226 | 1042 ft | 114 kts | 176° |
| 2026-04-11 22:41 | 30.41699 | -88.19036 | 1045 ft | 114 kts | 171° |
| 2026-04-11 22:41 | 30.40904 | -88.18858 | 1054 ft | 115 kts | 172° |
| 2026-04-11 22:41 | 30.40143 | -88.18685 | 1040 ft | 111 kts | 171° |
| 2026-04-11 22:42 | 30.39402 | -88.18558 | 1042 ft | 107 kts | 173° |
| 2026-04-11 22:42 | 30.38656 | -88.18375 | 1033 ft | 114 kts | 169° |
| 2026-04-11 22:42 | 30.37844 | -88.18253 | 1039 ft | 119 kts | 181° |
| 2026-04-11 22:43 | 30.36250 | -88.17890 | 1033 ft | 121 kts | 170° |
| 2026-04-11 22:43 | 30.35461 | -88.17753 | 1044 ft | 111 kts | 175° |
| 2026-04-11 22:43 | 30.34674 | -88.17584 | 1042 ft | 116 kts | 176° |
| 2026-04-11 22:43 | 30.33880 | -88.17513 | 1046 ft | 114 kts | 169° |
| 2026-04-11 22:44 | 30.33128 | -88.17238 | 1018 ft | 119 kts | 173° |
| 2026-04-11 22:44 | 30.32389 | -88.17104 | 1071 ft | 87 kts | 184° |
| 2026-04-11 22:44 | 30.31791 | -88.17071 | 1027 ft | 97 kts | 174° |
| 2026-04-11 22:44 | 30.31046 | -88.16971 | 1033 ft | 116 kts | 176° |
| 2026-04-11 22:45 | 30.30258 | -88.16797 | 1046 ft | 114 kts | 169° |
| 2026-04-11 22:45 | 30.29471 | -88.16681 | 1040 ft | 117 kts | 173° |
| 2026-04-11 22:45 | 30.28652 | -88.16575 | 1049 ft | 118 kts | 176° |
| 2026-04-11 22:45 | 30.27804 | -88.16497 | 1046 ft | 123 kts | 178° |
| 2026-04-11 22:46 | 30.26952 | -88.16372 | 1044 ft | 123 kts | 168° |
| 2026-04-11 22:46 | 30.26124 | -88.16075 | 1041 ft | 123 kts | 164° |
| 2026-04-11 22:46 | 30.25297 | -88.15881 | 1039 ft | 122 kts | 173° |
| 2026-04-11 22:46 | 30.24479 | -88.15776 | 1053 ft | 113 kts | 174° |
| 2026-04-11 22:47 | 30.23700 | -88.15603 | 1040 ft | 116 kts | 169° |
| 2026-04-11 22:47 | 30.22904 | -88.15447 | 1044 ft | 115 kts | 176° |
| 2026-04-11 22:47 | 30.22108 | -88.15343 | 1035 ft | 116 kts | 174° |
| 2026-04-11 22:47 | 30.21301 | -88.15261 | 1045 ft | 113 kts | 179° |
| 2026-04-11 22:48 | 30.20513 | -88.15173 | 1044 ft | 114 kts | 176° |
| 2026-04-11 22:48 | 30.19724 | -88.15105 | 1049 ft | 112 kts | 176° |
| 2026-04-11 22:48 | 30.18966 | -88.15034 | 1041 ft | 112 kts | 178° |
| 2026-04-11 22:48 | 30.18205 | -88.14964 | 1034 ft | 112 kts | 175° |
| 2026-04-11 22:49 | 30.17390 | -88.14857 | 1046 ft | 117 kts | 175° |
| 2026-04-11 22:49 | 30.16584 | -88.14731 | 1043 ft | 116 kts | 173° |
| 2026-04-11 22:49 | 30.15793 | -88.14623 | 1040 ft | 115 kts | 178° |
| 2026-04-11 22:49 | 30.14988 | -88.14579 | 1038 ft | 115 kts | 176° |
| 2026-04-11 22:50 | 30.14181 | -88.14493 | 1041 ft | 116 kts | 175° |
| 2026-04-11 22:50 | 30.13363 | -88.14430 | 1034 ft | 118 kts | 177° |
| 2026-04-11 22:50 | 30.12544 | -88.14390 | 1029 ft | 120 kts | 178° |
| 2026-04-11 22:50 | 30.11690 | -88.14354 | 1049 ft | 119 kts | 181° |
| 2026-04-11 22:51 | 30.10883 | -88.14343 | 1026 ft | 119 kts | 175° |
| 2026-04-11 22:51 | 30.10348 | -88.14257 | 1049 ft | 113 kts | 176° |
| 2026-04-11 22:51 | 30.09606 | -88.14317 | 1029 ft | 111 kts | 194° |
| 2026-04-11 22:51 | 30.08820 | -88.14575 | 1057 ft | 123 kts | 190° |
| 2026-04-11 22:52 | 30.07997 | -88.14789 | 1095 ft | 116 kts | 192° |
| 2026-04-11 22:52 | 30.06920 | -88.15073 | 1079 ft | 128 kts | 192° |
| 2026-04-11 22:52 | 30.06081 | -88.15317 | 1033 ft | 115 kts | 194° |
| 2026-04-11 22:52 | 30.05574 | -88.15475 | 1047 ft | 111 kts | 193° |
| 2026-04-11 22:53 | 30.04795 | -88.15691 | 1042 ft | 120 kts | 191° |
| 2026-04-11 22:53 | 30.04004 | -88.15923 | 1000 ft | 110 kts | 187° |
| 2026-04-11 22:53 | 30.03298 | -88.16023 | 983 ft | 94 kts | 186° |
| 2026-04-11 22:53 | 30.02670 | -88.16125 | 864 ft | 88 kts | 186° |
| 2026-04-11 22:54 | 30.01987 | -88.16207 | 725 ft | 116 kts | 181° |
| 2026-04-11 22:54 | 30.01137 | -88.16270 | 446 ft | 122 kts | 184° |
| 2026-04-11 22:54 | 30.00310 | -88.16318 | 283 ft | 113 kts | 183° |
| 2026-04-11 22:54 | 29.99601 | -88.16346 | 231 ft | 95 kts | 176° |
| 2026-04-11 22:55 | 29.98192 | -88.16452 | 360 ft | 112 kts | 180° |
| 2026-04-11 22:55 | 29.97473 | -88.16393 | 333 ft | 93 kts | 172° |
| 2026-04-11 22:55 | 29.96886 | -88.16327 | 315 ft | 79 kts | 172° |
| 2026-04-11 22:56 | 29.96338 | -88.16286 | 294 ft | 83 kts | 173° |
| 2026-04-11 22:56 | 29.95739 | -88.16176 | 306 ft | 86 kts | 172° |
| 2026-04-11 22:56 | 29.95182 | -88.16074 | 299 ft | 80 kts | 170° |
| 2026-04-11 22:56 | 29.94632 | -88.15964 | 293 ft | 80 kts | 175° |
| 2026-04-11 22:57 | 29.94073 | -88.15881 | 296 ft | 81 kts | 167° |
| 2026-04-11 22:57 | 29.93765 | -88.15363 | 297 ft | 84 kts | 107° |
| 2026-04-11 22:57 | 29.93712 | -88.14718 | 293 ft | 78 kts | 98° |
| 2026-04-11 22:57 | 29.93841 | -88.14093 | 292 ft | 84 kts | 64° |
| 2026-04-11 22:58 | 29.94365 | -88.13883 | 289 ft | 90 kts | 336° |
| 2026-04-11 22:58 | 29.94605 | -88.14407 | 292 ft | 72 kts | 262° |
| 2026-04-11 22:58 | 29.94638 | -88.15057 | 294 ft | 87 kts | 276° |
| 2026-04-11 22:58 | 29.94696 | -88.15751 | 292 ft | 87 kts | 273° |
| 2026-04-11 22:59 | 29.94685 | -88.16454 | 296 ft | 87 kts | 263° |
| 2026-04-11 22:59 | 29.94497 | -88.17077 | 294 ft | 81 kts | 223° |
| 2026-04-11 22:59 | 29.93875 | -88.17125 | 279 ft | 109 kts | 151° |
| 2026-04-11 22:59 | 29.93651 | -88.16467 | 308 ft | 83 kts | 72° |
| 2026-04-11 23:00 | 29.93912 | -88.15929 | 296 ft | 74 kts | 70° |
| 2026-04-11 23:00 | 29.94455 | -88.15750 | 286 ft | 104 kts | 324° |
| 2026-04-11 23:00 | 29.94573 | -88.16300 | 289 ft | 76 kts | 243° |
| 2026-04-11 23:00 | 29.94534 | -88.16975 | 303 ft | 91 kts | 283° |
| 2026-04-11 23:01 | 29.94543 | -88.17668 | 292 ft | 89 kts | 242° |
| 2026-04-11 23:01 | 29.93996 | -88.17919 | 309 ft | 81 kts | 151° |
| 2026-04-11 23:01 | 29.93818 | -88.17461 | 291 ft | 69 kts | 99° |
| 2026-04-11 23:01 | 29.93832 | -88.16880 | 290 ft | 76 kts | 89° |
| 2026-04-11 23:02 | 29.93894 | -88.16230 | 301 ft | 80 kts | 89° |
| 2026-04-11 23:02 | 29.94162 | -88.15712 | 275 ft | 95 kts | 15° |
| 2026-04-11 23:02 | 29.94618 | -88.16303 | 302 ft | 107 kts | 278° |
| 2026-04-11 23:02 | 29.94382 | -88.17087 | 305 ft | 97 kts | 226° |
| 2026-04-11 23:03 | 29.93876 | -88.17029 | 288 ft | 84 kts | 118° |
| 2026-04-11 23:03 | 29.93880 | -88.16457 | 293 ft | 67 kts | 93° |
| 2026-04-11 23:03 | 29.93934 | -88.15855 | 290 ft | 86 kts | 66° |
| 2026-04-11 23:03 | 29.94502 | -88.15970 | 230 ft | 127 kts | 291° |
| 2026-04-11 23:04 | 29.94332 | -88.16847 | 327 ft | 96 kts | 248° |
| 2026-04-11 23:04 | 29.93938 | -88.17268 | 281 ft | 86 kts | 163° |
| 2026-04-11 23:04 | 29.93812 | -88.16669 | 309 ft | 78 kts | 88° |
| 2026-04-11 23:04 | 29.93870 | -88.16052 | 299 ft | 77 kts | 86° |
| 2026-04-11 23:05 | 29.93967 | -88.15508 | 293 ft | 71 kts | 44° |
| 2026-04-11 23:05 | 29.94369 | -88.15755 | 295 ft | 80 kts | 262° |
| 2026-04-11 23:05 | 29.94377 | -88.16466 | 306 ft | 92 kts | 276° |
| 2026-04-11 23:05 | 29.94485 | -88.17155 | 299 ft | 86 kts | 283° |
| 2026-04-11 23:06 | 29.94328 | -88.17637 | 257 ft | 53 kts | 185° |
| 2026-04-11 23:06 | 29.94197 | -88.17357 | 338 ft | 39 kts | 114° |
| 2026-04-11 23:06 | 29.94133 | -88.17074 | 319 ft | 34 kts | 105° |
| 2026-04-11 23:06 | 29.94086 | -88.16784 | 274 ft | 38 kts | 101° |
| 2026-04-11 23:07 | 29.94058 | -88.16518 | 179 ft | 28 kts | 102° |
| 2026-04-11 23:07 | 29.94057 | -88.16332 | 87 ft | 10 kts | 98° |
| 2026-04-11 23:07 | 29.94059 | -88.16285 | 95 ft | 6 kts | 98° |
| 2026-04-11 23:07 | 29.94055 | -88.16198 | 70 ft | 6 kts | 97° |
| 2026-04-11 23:08 | 29.94057 | -88.16163 | 57 ft | 8 kts | 95° |
| 2026-04-11 23:08 | 29.94058 | -88.16146 | 35 ft | 1 kts | 97° |
| 2026-04-11 23:08 | 29.94058 | -88.16138 | 34 ft | 1 kts | 97° |
| 2026-04-11 23:08 | 29.94043 | -88.16133 | 63 ft | 8 kts | 91° |
| 2026-04-11 23:09 | 29.94003 | -88.16002 | 157 ft | 52 kts | 99° |
| 2026-04-11 23:09 | 29.94071 | -88.15390 | 287 ft | 94 kts | 51° |
| 2026-04-11 23:09 | 29.94723 | -88.15486 | 333 ft | 103 kts | 322° |
| 2026-04-11 23:09 | 29.94963 | -88.16162 | 328 ft | 88 kts | 270° |
| 2026-04-11 23:10 | 29.94924 | -88.16867 | 313 ft | 88 kts | 255° |
| 2026-04-11 23:10 | 29.94574 | -88.17407 | 316 ft | 83 kts | 205° |
| 2026-04-11 23:10 | 29.94027 | -88.17415 | 321 ft | 77 kts | 162° |
| 2026-04-11 23:10 | 29.93767 | -88.16995 | 306 ft | 74 kts | 95° |
| 2026-04-11 23:11 | 29.93796 | -88.16362 | 311 ft | 80 kts | 96° |
| 2026-04-11 23:11 | 29.93800 | -88.15730 | 315 ft | 78 kts | 78° |
| 2026-04-11 23:11 | 29.94236 | -88.15411 | 287 ft | 90 kts | 358° |
| 2026-04-11 23:11 | 29.94582 | -88.15797 | 314 ft | 63 kts | 270° |
| 2026-04-11 23:12 | 29.94641 | -88.16215 | 477 ft | 48 kts | 283° |
| 2026-04-11 23:12 | 29.94510 | -88.16638 | 287 ft | 64 kts | 194° |
| 2026-04-11 23:12 | 29.94237 | -88.16580 | 196 ft | 25 kts | 115° |
| 2026-04-11 23:12 | 29.94150 | -88.16445 | 137 ft | 21 kts | 123° |
| 2026-04-11 23:13 | 29.94080 | -88.16245 | 143 ft | 20 kts | 108° |
| 2026-04-11 23:13 | 29.94064 | -88.16144 | 104 ft | 10 kts | 101° |
| 2026-04-11 23:13 | 29.94050 | -88.16049 | 83 ft | 8 kts | 91° |
| 2026-04-11 23:13 | 29.94053 | -88.15993 | 61 ft | 7 kts | 90° |
| 2026-04-11 23:14 | 29.94056 | -88.15987 | 119 ft | 21 kts | 95° |
| 2026-04-11 23:14 | 29.93960 | -88.15965 | 300 ft | 33 kts | 98° |
| 2026-04-11 23:14 | 29.93974 | -88.15538 | 293 ft | 72 kts | 71° |
| 2026-04-11 23:14 | 29.94414 | -88.15393 | 290 ft | 85 kts | 324° |
| 2026-04-11 23:15 | 29.94560 | -88.15912 | 306 ft | 62 kts | 256° |
| 2026-04-11 23:15 | 29.94518 | -88.16444 | 360 ft | 72 kts | 254° |
| 2026-04-11 23:15 | 29.94175 | -88.16756 | 412 ft | 63 kts | 169° |
| 2026-04-11 23:15 | 29.93992 | -88.16510 | 326 ft | 44 kts | 91° |
| 2026-04-11 23:16 | 29.94017 | -88.16188 | 208 ft | 28 kts | 87° |
| 2026-04-11 23:16 | 29.94049 | -88.16063 | 123 ft | 5 kts | 88° |
| 2026-04-11 23:16 | 29.94052 | -88.16006 | 96 ft | 10 kts | 93° |
| 2026-04-11 23:16 | 29.94056 | -88.15943 | 96 ft | 5 kts | 92° |
| 2026-04-11 23:17 | 29.94055 | -88.15890 | 60 ft | 9 kts | 93° |
| 2026-04-11 23:17 | 29.94055 | -88.15867 | 49 ft | 2 kts | 91° |
| 2026-04-11 23:17 | 29.94055 | -88.15852 | 33 ft | 1 kts | 98° |
| 2026-04-11 23:17 | 29.94058 | -88.15846 | 115 ft | 3 kts | 96° |
| 2026-04-11 23:18 | 29.94011 | -88.15639 | 258 ft | 69 kts | 109° |
| 2026-04-11 23:18 | 29.94255 | -88.15167 | 240 ft | 87 kts | 3° |
| 2026-04-11 23:18 | 29.94565 | -88.15655 | 274 ft | 87 kts | 276° |
| 2026-04-11 23:18 | 29.94630 | -88.16383 | 315 ft | 89 kts | 274° |
| 2026-04-11 23:19 | 29.94279 | -88.16874 | 307 ft | 84 kts | 192° |
| 2026-04-11 23:19 | 29.93728 | -88.16792 | 306 ft | 79 kts | 152° |
| 2026-04-11 23:19 | 29.93379 | -88.16304 | 298 ft | 83 kts | 115° |
| 2026-04-11 23:19 | 29.93394 | -88.15651 | 308 ft | 78 kts | 79° |
| 2026-04-11 23:20 | 29.93491 | -88.15032 | 298 ft | 83 kts | 83° |
| 2026-04-11 23:20 | 29.93708 | -88.14416 | 298 ft | 86 kts | 56° |
| 2026-04-11 23:20 | 29.94247 | -88.14124 | 299 ft | 89 kts | 4° |
| 2026-04-11 23:20 | 29.94701 | -88.14578 | 302 ft | 92 kts | 286° |
| 2026-04-11 23:21 | 29.94660 | -88.15282 | 304 ft | 85 kts | 254° |
| 2026-04-11 23:21 | 29.94500 | -88.15927 | 296 ft | 86 kts | 252° |
| 2026-04-11 23:21 | 29.94383 | -88.16607 | 299 ft | 87 kts | 259° |
| 2026-04-11 23:21 | 29.94326 | -88.17314 | 383 ft | 91 kts | 265° |
| 2026-04-11 23:22 | 29.94079 | -88.17908 | 364 ft | 76 kts | 196° |
| 2026-04-11 23:22 | 29.93835 | -88.17688 | 364 ft | 51 kts | 88° |
| 2026-04-11 23:22 | 29.93928 | -88.17310 | 405 ft | 49 kts | 92° |
| 2026-04-11 23:22 | 29.93975 | -88.16941 | 382 ft | 44 kts | 88° |
| 2026-04-11 23:23 | 29.94020 | -88.16566 | 422 ft | 47 kts | 94° |
| 2026-04-11 23:23 | 29.94052 | -88.16274 | 325 ft | 31 kts | 98° |
| 2026-04-11 23:23 | 29.94084 | -88.16047 | 242 ft | 29 kts | 101° |
| 2026-04-11 23:23 | 29.94056 | -88.15810 | 173 ft | 23 kts | 98° |
| 2026-04-11 23:24 | 29.94066 | -88.15751 | 121 ft | 2 kts | 98° |
| 2026-04-11 23:24 | 29.94057 | -88.15715 | 106 ft | 9 kts | 98° |
| 2026-04-11 23:24 | 29.94058 | -88.15655 | 72 ft | 7 kts | 101° |
| 2026-04-11 23:24 | 29.94055 | -88.15623 | 54 ft | 1 kts | 92° |
| 2026-04-11 23:25 | 29.94056 | -88.15612 | 45 ft | 1 kts | 92° |
| 2026-04-11 23:25 | 29.94055 | -88.15607 | 54 ft | 1 kts | 93° |
| 2026-04-11 23:25 | 29.94054 | -88.15594 | 33 ft | 1 kts | 94° |
| 2026-04-11 23:25 | 29.94054 | -88.15586 | 33 ft | 1 kts | 94° |
| 2026-04-11 23:26 | 29.94054 | -88.15577 | 33 ft | 1 kts | 94° |
| 2026-04-11 23:26 | 29.94054 | -88.15569 | 33 ft | 1 kts | 94° |
| 2026-04-11 23:26 | 29.94054 | -88.15561 | 33 ft | 1 kts | 94° |
| 2026-04-11 23:26 | 29.94054 | -88.15553 | 33 ft | 1 kts | 94° |
| 2026-04-11 23:27 | 29.94054 | -88.15552 | 33 ft | 1 kts | 94° |
| 2026-04-11 23:27 | 29.94132 | -88.15509 | 267 ft | 24 kts | 70° |
| 2026-04-11 23:27 | 29.94226 | -88.15254 | 392 ft | 61 kts | 61° |
| 2026-04-11 23:28 | 29.94382 | -88.15111 | 662 ft | 66 kts | 11° |
| 2026-04-11 23:29 | 29.94597 | -88.15108 | 803 ft | 88 kts | 360° |
| 2026-04-11 23:29 | 29.95339 | -88.15413 | 741 ft | 148 kts | 329° |
| 2026-04-11 23:30 | 29.96189 | -88.16083 | 1082 ft | 142 kts | 336° |
| 2026-04-11 23:30 | 29.96839 | -88.16766 | 1754 ft | 123 kts | 298° |
| 2026-04-11 23:30 | 29.97366 | -88.17725 | 1614 ft | 146 kts | 313° |
| 2026-04-11 23:30 | 29.98136 | -88.18410 | 1889 ft | 137 kts | 336° |
| 2026-04-11 23:31 | 29.99034 | -88.18669 | 2173 ft | 129 kts | 0° |
| 2026-04-11 23:31 | 30.00028 | -88.18702 | 2038 ft | 150 kts | 5° |
| 2026-04-11 23:31 | 30.01049 | -88.18622 | 2206 ft | 143 kts | 10° |
| 2026-04-11 23:31 | 30.02025 | -88.18473 | 2598 ft | 140 kts | 13° |
| 2026-04-11 23:32 | 30.03060 | -88.18319 | 2564 ft | 160 kts | 12° |
| 2026-04-11 23:32 | 30.04217 | -88.18152 | 2439 ft | 174 kts | 12° |
| 2026-04-11 23:32 | 30.05415 | -88.17969 | 2482 ft | 173 kts | 11° |
| 2026-04-11 23:32 | 30.06588 | -88.17818 | 2806 ft | 171 kts | 11° |
| 2026-04-11 23:33 | 30.07784 | -88.17821 | 3054 ft | 170 kts | 1° |
| 2026-04-11 23:33 | 30.08937 | -88.17993 | 3524 ft | 156 kts | 352° |
| 2026-04-11 23:33 | 30.09920 | -88.18275 | 4137 ft | 139 kts | 349° |
| 2026-04-11 23:33 | 30.10996 | -88.18427 | 3319 ft | 170 kts | 7° |
| 2026-04-11 23:34 | 30.12237 | -88.18344 | 2922 ft | 187 kts | 12° |
| 2026-04-11 23:34 | 30.13104 | -88.18201 | 2621 ft | 185 kts | 14° |
| 2026-04-11 23:34 | 30.14341 | -88.17998 | 2561 ft | 176 kts | 11° |
| 2026-04-11 23:34 | 30.15546 | -88.17863 | 2564 ft | 173 kts | 12° |
| 2026-04-11 23:35 | 30.16452 | -88.18027 | 1677 ft | 123 kts | 347° |
| 2026-04-11 23:35 | 30.17215 | -88.18312 | 1976 ft | 125 kts | 347° |
| 2026-04-11 23:35 | 30.18143 | -88.18512 | 2035 ft | 146 kts | 353° |
| 2026-04-11 23:35 | 30.19191 | -88.18643 | 1957 ft | 157 kts | 1° |
| 2026-04-11 23:36 | 30.20324 | -88.18682 | 1817 ft | 172 kts | 1° |
| 2026-04-11 23:36 | 30.21486 | -88.18714 | 1902 ft | 160 kts | 5° |
| 2026-04-11 23:36 | 30.22573 | -88.18663 | 1652 ft | 156 kts | 6° |
| 2026-04-11 23:36 | 30.23736 | -88.18644 | 1249 ft | 176 kts | 5° |
| 2026-04-11 23:37 | 30.24919 | -88.18577 | 1036 ft | 165 kts | 6° |
| 2026-04-11 23:37 | 30.26028 | -88.18441 | 1070 ft | 155 kts | 11° |
| 2026-04-11 23:37 | 30.27077 | -88.18268 | 1312 ft | 152 kts | 11° |
| 2026-04-11 23:37 | 30.27954 | -88.17726 | 1313 ft | 150 kts | 55° |
| 2026-04-11 23:38 | 30.28589 | -88.16771 | 1199 ft | 134 kts | 66° |
| 2026-04-11 23:38 | 30.29201 | -88.16423 | 1786 ft | 101 kts | 352° |
| 2026-04-11 23:38 | 30.29866 | -88.16840 | 2056 ft | 108 kts | 342° |
| 2026-04-11 23:38 | 30.30736 | -88.17078 | 1868 ft | 145 kts | 350° |
| 2026-04-11 23:39 | 30.31811 | -88.17367 | 1390 ft | 169 kts | 347° |
| 2026-04-11 23:39 | 30.32924 | -88.17715 | 994 ft | 157 kts | 351° |
| 2026-04-11 23:39 | 30.33985 | -88.17927 | 863 ft | 154 kts | 352° |
| 2026-04-11 23:39 | 30.35053 | -88.18147 | 879 ft | 156 kts | 352° |
| 2026-04-11 23:40 | 30.36129 | -88.18425 | 828 ft | 167 kts | 345° |
| 2026-04-11 23:40 | 30.37253 | -88.18910 | 687 ft | 176 kts | 337° |
| 2026-04-11 23:40 | 30.38303 | -88.19542 | 651 ft | 150 kts | 329° |
| 2026-04-11 23:40 | 30.39196 | -88.20026 | 897 ft | 132 kts | 349° |
| 2026-04-11 23:41 | 30.40092 | -88.20204 | 1011 ft | 135 kts | 350° |
| 2026-04-11 23:41 | 30.41040 | -88.20410 | 1021 ft | 133 kts | 351° |
| 2026-04-11 23:41 | 30.41955 | -88.20599 | 949 ft | 146 kts | 351° |
| 2026-04-11 23:41 | 30.43015 | -88.20850 | 869 ft | 163 kts | 348° |
| 2026-04-11 23:42 | 30.44136 | -88.21072 | 837 ft | 154 kts | 353° |
| 2026-04-11 23:42 | 30.45123 | -88.21158 | 801 ft | 128 kts | 359° |
| 2026-04-11 23:42 | 30.45970 | -88.21149 | 842 ft | 125 kts | 351° |
| 2026-04-11 23:43 | 30.47822 | -88.21400 | 1021 ft | 145 kts | 1° |
| 2026-04-11 23:43 | 30.48833 | -88.21384 | 1052 ft | 144 kts | 6° |
| 2026-04-11 23:43 | 30.50821 | -88.21240 | 753 ft | 141 kts | 5° |
| 2026-04-11 23:44 | 30.51811 | -88.21254 | 890 ft | 142 kts | 2° |
| 2026-04-11 23:44 | 30.52800 | -88.21320 | 1006 ft | 142 kts | 357° |
| 2026-04-11 23:44 | 30.53789 | -88.21441 | 1105 ft | 142 kts | 355° |
| 2026-04-11 23:44 | 30.54747 | -88.21586 | 837 ft | 137 kts | 354° |
| 2026-04-11 23:45 | 30.55673 | -88.21809 | 891 ft | 132 kts | 343° |
| 2026-04-11 23:45 | 30.56524 | -88.22136 | 965 ft | 125 kts | 341° |
| 2026-04-11 23:45 | 30.57395 | -88.22491 | 817 ft | 142 kts | 338° |
| 2026-04-11 23:45 | 30.58367 | -88.22913 | 813 ft | 158 kts | 338° |
| 2026-04-11 23:46 | 30.59404 | -88.23359 | 1027 ft | 161 kts | 345° |
| 2026-04-11 23:46 | 30.60499 | -88.23650 | 968 ft | 158 kts | 344° |
| 2026-04-11 23:46 | 30.61523 | -88.23953 | 1077 ft | 149 kts | 348° |
| 2026-04-11 23:46 | 30.62525 | -88.24081 | 1177 ft | 134 kts | 34° |
| 2026-04-11 23:47 | 30.63259 | -88.23516 | 987 ft | 128 kts | 19° |
| 2026-04-11 23:47 | 30.64130 | -88.23667 | 1081 ft | 133 kts | 339° |
| 2026-04-11 23:47 | 30.64936 | -88.23746 | 1201 ft | 115 kts | 11° |
| 2026-04-11 23:47 | 30.65741 | -88.23451 | 1032 ft | 129 kts | 25° |
| 2026-04-11 23:48 | 30.66662 | -88.23307 | 924 ft | 132 kts | 6° |
| 2026-04-11 23:48 | 30.67516 | -88.23309 | 744 ft | 115 kts | 2° |
| 2026-04-11 23:48 | 30.68286 | -88.23256 | 581 ft | 105 kts | 9° |
| 2026-04-11 23:48 | 30.69022 | -88.23198 | 534 ft | 105 kts | 356° |
| 2026-04-11 23:49 | 30.69072 | -88.23442 | 479 ft | 51 kts | 185° |
| 2026-04-11 23:49 | 30.68920 | -88.23620 | 559 ft | 50 kts | 321° |
| 2026-04-11 23:49 | 30.69287 | -88.24081 | 480 ft | 69 kts | 303° |
| 2026-04-11 23:49 | 30.69468 | -88.24328 | 241 ft | 25 kts | 303° |
| 2026-04-11 23:50 | 30.69541 | -88.24340 | 279 ft | 13 kts | 299° |
| 2026-04-11 23:50 | 30.69515 | -88.24341 | 238 ft | 11 kts | 179° |
| 2026-04-11 23:50 | 30.69507 | -88.24342 | 227 ft | 3 kts | 187° |